• Join FlightAware (Why Join?)
  • Login
  • US Flag 
11:44PM EDT


 

Airport Tracker/Info


-or-


 

Live Flight TrackerFlight Track Log ✈ UAL4108 ✈ 08-Apr-2013 ✈ KEWR - KPWM

Flight Track Log - Related Links

Times and Time Zones

All times are in EDT time to prevent confusion due to time zone crossing. See the UAL4108 flight status page for this flight to view local times or setup timezone preferences in your user account.

Time Position Orientation Groundspeed Altitude Reporting Facility
EDT Latitude Longitude Course Direction KTS MPH feet Rate Location/Type
11:37AM 40.6333 -74.1833 27° Northeast 183 211 2,300  Level New York TRACON
11:38AM 40.6333 -74.2500 270° West 241 277 4,400 1,860 Climbing New York TRACON
11:39AM 40.9063 -73.9104 37° Northeast  Level FlightAware Approximate
11:39AM 40.6833 -74.2167 27° Northeast 265 305 6,100  Level New York TRACON
11:40AM 40.9887 -73.8280 37° Northeast  Level FlightAware Approximate
11:40AM 40.7167 -74.1167 66° East 290 334 6,700  Level New York TRACON
11:41AM 41.0680 -73.7402 40° Northeast  Level FlightAware Approximate
11:41AM 40.7500 -74.0167 66° East 293 337 8,800  Level New York TRACON
11:42AM 41.1491 -73.6562 27° Northeast  Level FlightAware Approximate
11:42AM 40.7833 -73.9167 66° East 322 371 10,100  Level New York TRACON
11:43AM 40.8333 -73.8000 60° Northeast 379 436 10,400 900 Climbing New York TRACON
11:44AM 40.9000 -73.6833 53° Northeast 391 450 12,000 1,440 Climbing New York TRACON
11:46AM 41.0778 -73.5442 31° Northeast 377 434 15,100 1,440 Climbing Boston Center
11:47AM 41.1825 -73.4853 23° Northeast 371 427 16,500 1,200 Climbing Boston Center
11:48AM 41.2706 -73.4344 23° Northeast 377 434 17,500 900 Climbing Boston Center
11:49AM 41.3794 -73.3697 24° Northeast 377 434 18,400 840 Climbing Boston Center
11:50AM 41.4736 -73.3183 22° Northeast 377 434 19,200 1,080 Climbing Boston Center
11:51AM 41.5806 -73.2644 21° North 378 435 20,600 840 Climbing Boston Center
11:52AM 41.6867 -73.2739 356° North 369 425 21,000 180 Climbing Boston Center
11:53AM 41.7969 -73.2783 358° North 375 432 21,000  Level Boston Center
11:54AM 41.9053 -73.2825 358° North 381 438 21,000  Level Boston Center
11:55AM 41.9908 -73.2892 357° North 381 438 21,000  Level Boston Center
11:56AM 42.1053 -73.2964 357° North 381 438 21,000  Level Boston Center
11:57AM 42.2100 -73.2500 18° North 387 445 21,000  Level Boston Center
11:58AM 42.2900 -73.1278 48° Northeast 386 444 21,000  Level Boston Center
11:59AM 42.3678 -72.9881 53° Northeast 429 494 21,000  Level Boston Center
12:00PM 42.4475 -72.8594 50° Northeast 437 503 21,000  Level Boston Center
12:01PM 42.5250 -72.7247 52° Northeast 447 514 21,000  Level Boston Center
12:02PM 42.6044 -72.6008 49° Northeast 447 514 21,000  Level Boston Center
12:03PM 42.6839 -72.4767 49° Northeast 447 514 21,000  Level Boston Center
12:04PM 42.7650 -72.3439 50° Northeast 442 509 21,000  Level Boston Center
12:05PM 42.8461 -72.2022 52° Northeast 442 509 21,000  Level Boston Center
12:06PM 42.9228 -72.0714 51° Northeast 442 509 21,000 -120 Level Boston Center
12:07PM 42.9994 -71.9406 51° Northeast 442 509 20,800 -780 Descending Boston Center
12:08PM 43.0944 -71.7806 51° Northeast 442 509 19,400 -1,320 Descending Boston Center
12:09PM 43.1708 -71.6544 50° Northeast 442 509 18,200 -1,140 Descending Boston Center
12:10PM 43.2286 -71.5539 52° Northeast 436 502 17,200 -1,680 Descending Boston Center
12:11PM 43.3147 -71.4100 51° Northeast 431 496 14,900 -2,160 Descending Boston Center
12:12PM 43.3844 -71.2858 52° Northeast 412 474 12,900 -1,680 Descending Boston Center
12:13PM 43.4458 -71.1733 53° Northeast 377 434 11,500 -1,020 Descending Boston Center
12:14PM 43.4942 -71.0406 63° Northeast 377 434 10,900 -480 Descending Boston Center
12:15PM 43.5281 -70.9108 70° East 365 420 10,600 -660 Descending Boston Center
12:16PM 43.5433 -70.8161 77° East 345 397 9,600 -1,620 Descending Boston Center
12:17PM 43.5311 -70.6817 97° East 309 356 7,500 -1,620 Descending Boston Center
12:18PM 43.5275 -70.5844 93° East 287 330 6,400 -1,140 Descending Boston Center
12:19PM 43.5194 -70.4758 96° East 266 306 5,200 -1,080 Descending Boston Center
12:20PM 43.5158 -70.3900 93° East 249 287 4,300 -840 Descending Boston Center
12:21PM 43.5094 -70.2817 95° East 254 292 3,600 -720 Descending Boston Center
12:22PM 43.5247 -70.2008 75° East 247 284 2,900 -720 Descending Boston Center